TimeCDT,TemperatureF,Dew PointF,Humidity,Sea Level PressureIn,VisibilityMPH,Wind Direction,Wind SpeedMPH,Gust SpeedMPH,PrecipitationIn,Events,Conditions,WindDirDegrees,DateUTC
12:54 AM,59.0,52.0,78,29.89,10.0,Calm,Calm,-,N/A,,Overcast,0,2012-10-03 05:54:00
1:54 AM,59.0,51.1,75,29.89,10.0,NNW,3.5,-,N/A,,Overcast,330,2012-10-03 06:54:00
2:54 AM,59.0,51.1,75,29.90,10.0,Calm,Calm,-,N/A,,Overcast,0,2012-10-03 07:54:00
3:54 AM,59.0,52.0,78,29.91,10.0,Calm,Calm,-,N/A,,Overcast,0,2012-10-03 08:54:00
4:54 AM,59.0,52.0,78,29.92,10.0,Calm,Calm,-,N/A,,Overcast,0,2012-10-03 09:54:00
5:54 AM,57.9,52.0,81,29.94,8.0,Calm,Calm,-,N/A,,Overcast,0,2012-10-03 10:54:00
6:54 AM,57.9,52.0,81,29.95,10.0,Calm,Calm,-,0.00,,Overcast,0,2012-10-03 11:54:00
7:31 AM,57.2,51.8,82,29.96,7.0,WSW,4.6,-,N/A,,Overcast,250,2012-10-03 12:31:00
7:54 AM,57.9,52.0,81,29.96,10.0,West,3.5,-,N/A,,Overcast,280,2012-10-03 12:54:00
8:45 AM,59.0,53.6,82,29.97,10.0,West,5.8,-,N/A,,Overcast,270,2012-10-03 13:45:00
8:54 AM,59.0,53.1,81,29.97,10.0,West,4.6,-,N/A,,Overcast,270,2012-10-03 13:54:00
9:18 AM,59.0,53.6,82,29.98,10.0,West,3.5,-,N/A,,Overcast,270,2012-10-03 14:18:00
9:54 AM,61.0,53.1,75,29.98,10.0,Calm,Calm,-,N/A,,Overcast,0,2012-10-03 14:54:00
10:54 AM,64.0,54.0,70,29.97,10.0,WNW,5.8,-,N/A,,Mostly Cloudy,290,2012-10-03 15:54:00
11:54 AM,66.0,54.0,65,29.97,10.0,Calm,Calm,-,N/A,,Overcast,0,2012-10-03 16:54:00
12:43 PM,64.4,53.6,68,29.97,10.0,SE,3.5,-,N/A,,Overcast,140,2012-10-03 17:43:00
12:54 PM,64.9,54.0,68,29.97,10.0,Calm,Calm,-,N/A,,Overcast,0,2012-10-03 17:54:00
1:54 PM,64.9,54.0,68,29.96,10.0,South,5.8,-,N/A,,Overcast,180,2012-10-03 18:54:00
2:13 PM,66.2,53.6,64,29.97,10.0,SSW,5.8,-,N/A,,Overcast,200,2012-10-03 19:13:00
2:54 PM,66.9,53.1,61,29.96,10.0,SW,5.8,-,N/A,,Overcast,220,2012-10-03 19:54:00
3:54 PM,66.0,52.0,60,29.96,10.0,SW,6.9,-,N/A,,Overcast,230,2012-10-03 20:54:00
4:54 PM,66.0,50.0,56,29.96,10.0,Calm,Calm,-,N/A,,Overcast,0,2012-10-03 21:54:00
5:54 PM,62.1,53.1,72,29.97,10.0,South,3.5,-,0.00,,Overcast,180,2012-10-03 22:54:00
6:54 PM,62.1,53.1,72,29.98,10.0,Calm,Calm,-,0.00,,Overcast,0,2012-10-03 23:54:00
7:54 PM,61.0,52.0,72,30.00,10.0,Calm,Calm,-,N/A,,Overcast,0,2012-10-04 00:54:00
8:54 PM,61.0,54.0,78,30.02,10.0,South,4.6,-,0.00,Rain,Light Rain,190,2012-10-04 01:54:00
9:54 PM,61.0,53.1,75,30.03,10.0,Calm,Calm,-,0.00,,Overcast,0,2012-10-04 02:54:00
10:54 PM,59.0,52.0,78,30.03,10.0,South,3.5,-,N/A,,Scattered Clouds,180,2012-10-04 03:54:00
11:54 PM,57.0,51.1,81,30.04,10.0,Calm,Calm,-,N/A,,Clear,0,2012-10-04 04:54:00